createdAt,value
2018-09-14T00:01:03.407Z,99.90
2018-09-14T00:03:30.902Z,99.90
2018-09-14T00:05:58.399Z,99.90
2018-09-14T00:08:25.927Z,99.90
2018-09-14T00:10:53.481Z,99.90
2018-09-14T00:13:20.979Z,99.90
2018-09-14T00:15:48.945Z,99.90
2018-09-14T00:18:16.495Z,99.90
2018-09-14T00:20:44.053Z,99.90
2018-09-14T00:23:11.773Z,99.90
2018-09-14T00:25:39.324Z,99.90
2018-09-14T00:28:06.841Z,99.90
2018-09-14T00:30:34.363Z,99.90
2018-09-14T00:33:01.901Z,99.90
2018-09-14T00:35:29.429Z,99.90
2018-09-14T00:40:31.081Z,99.90
2018-09-14T00:42:58.581Z,99.90
2018-09-14T00:45:26.197Z,99.90
2018-09-14T00:47:53.738Z,99.90
2018-09-14T00:50:21.237Z,99.90
2018-09-14T00:52:48.749Z,99.90
2018-09-14T00:55:16.308Z,99.90
2018-09-14T00:57:43.837Z,99.90
2018-09-14T01:00:11.386Z,99.90
2018-09-14T01:02:38.909Z,99.90
2018-09-14T01:05:06.532Z,99.90
2018-09-14T01:07:34.976Z,99.90
2018-09-14T01:10:03.768Z,99.90
2018-09-14T01:12:31.281Z,99.90
2018-09-14T01:14:58.792Z,99.90
2018-09-14T01:17:26.384Z,99.90
2018-09-14T01:19:53.917Z,99.90
2018-09-14T01:22:21.402Z,99.90
2018-09-14T01:24:49.086Z,99.90
2018-09-14T01:27:16.639Z,99.90
2018-09-14T01:29:44.138Z,99.90
2018-09-14T01:32:11.695Z,99.90
2018-09-14T01:34:39.217Z,99.90
2018-09-14T01:37:06.708Z,99.90
2018-09-14T01:39:34.249Z,99.90
2018-09-14T01:42:01.897Z,99.90
2018-09-14T01:44:29.457Z,99.90
2018-09-14T01:46:56.979Z,99.90
2018-09-14T01:49:24.508Z,99.90
2018-09-14T01:51:51.995Z,99.90
2018-09-14T01:54:19.528Z,99.90
2018-09-14T01:56:47.109Z,99.90
2018-09-14T01:59:14.658Z,99.90
2018-09-14T02:01:42.192Z,99.90
2018-09-14T02:04:09.696Z,99.90
2018-09-14T02:06:37.286Z,99.90
2018-09-14T02:09:06.943Z,99.90
2018-09-14T02:11:34.454Z,99.90
2018-09-14T02:14:01.973Z,99.90
2018-09-14T02:16:29.518Z,99.90
2018-09-14T02:18:57.020Z,99.90
2018-09-14T02:21:24.548Z,99.90
2018-09-14T02:23:52.072Z,99.90
2018-09-14T02:26:19.618Z,99.90
2018-09-14T02:28:47.151Z,99.90
2018-09-14T02:31:14.696Z,99.90
2018-09-14T02:33:42.250Z,99.90
2018-09-14T02:36:09.750Z,99.90
2018-09-14T02:38:37.280Z,99.90
2018-09-14T02:41:04.922Z,99.90
2018-09-14T02:43:32.425Z,99.90
2018-09-14T02:45:59.950Z,99.90
2018-09-14T02:48:27.566Z,99.90
2018-09-14T02:50:55.082Z,99.90
2018-09-14T02:53:22.686Z,99.90
2018-09-14T02:55:50.236Z,99.90
2018-09-14T02:58:17.768Z,99.90
2018-09-14T03:00:45.313Z,99.90
2018-09-14T03:03:12.824Z,99.90
2018-09-14T03:05:40.326Z,99.90
2018-09-14T03:08:07.995Z,99.90
2018-09-14T03:10:35.596Z,99.90
2018-09-14T03:13:03.114Z,99.90
2018-09-14T03:15:30.638Z,99.90
2018-09-14T03:17:58.145Z,99.90
2018-09-14T03:20:25.650Z,99.90
2018-09-14T03:22:53.220Z,99.90
2018-09-14T03:25:20.747Z,99.90
2018-09-14T03:27:48.233Z,99.90
2018-09-14T03:30:15.813Z,99.90
2018-09-14T03:32:43.314Z,99.90
2018-09-14T03:35:10.900Z,99.90
2018-09-14T03:37:38.436Z,99.90
2018-09-14T03:40:05.991Z,99.90
2018-09-14T03:42:33.564Z,99.90
2018-09-14T03:45:01.158Z,99.90
2018-09-14T03:47:28.642Z,99.90
2018-09-14T03:49:56.130Z,99.90
2018-09-14T03:52:23.655Z,99.90
2018-09-14T03:54:51.157Z,99.90
2018-09-14T03:57:18.747Z,99.90
2018-09-14T03:59:46.260Z,99.90
2018-09-14T04:02:13.783Z,99.90
2018-09-14T04:04:41.291Z,99.90
2018-09-14T04:07:08.816Z,99.90
2018-09-14T04:09:36.340Z,99.90
2018-09-14T04:12:03.914Z,99.90
2018-09-14T04:14:31.485Z,99.90
2018-09-14T04:16:59.068Z,99.90
2018-09-14T04:19:26.565Z,99.90
2018-09-14T04:21:54.163Z,99.90
2018-09-14T04:24:21.670Z,99.90
2018-09-14T04:26:49.182Z,99.90
2018-09-14T04:29:16.689Z,99.90
2018-09-14T04:31:44.216Z,99.90
2018-09-14T04:34:11.743Z,99.90
2018-09-14T04:36:39.251Z,99.90
2018-09-14T04:39:08.284Z,99.90
2018-09-14T04:41:35.803Z,99.90
2018-09-14T04:44:03.365Z,99.90
2018-09-14T04:46:30.866Z,99.90
2018-09-14T04:48:58.358Z,99.90
2018-09-14T04:51:25.971Z,99.90
2018-09-14T04:53:53.439Z,99.90
2018-09-14T04:56:20.943Z,99.90
2018-09-14T04:58:48.547Z,99.90
2018-09-14T05:01:16.033Z,99.90
2018-09-14T05:03:43.546Z,99.90
2018-09-14T05:06:11.043Z,99.90
2018-09-14T05:08:38.546Z,99.90
2018-09-14T05:11:06.045Z,99.90
2018-09-14T05:13:33.570Z,99.90
2018-09-14T05:16:01.169Z,99.90
2018-09-14T05:18:28.762Z,99.90
2018-09-14T05:20:56.374Z,99.90
2018-09-14T05:23:23.930Z,99.90
2018-09-14T05:25:51.462Z,99.90
2018-09-14T05:28:19.026Z,99.90
2018-09-14T05:30:46.521Z,99.90
2018-09-14T05:33:14.029Z,99.90
2018-09-14T05:35:41.613Z,99.90
2018-09-14T05:38:09.175Z,99.90
2018-09-14T05:40:36.662Z,99.90
2018-09-14T05:43:04.285Z,99.90
2018-09-14T05:45:31.859Z,99.90
2018-09-14T05:47:59.388Z,99.90
2018-09-14T05:50:27.062Z,99.90
2018-09-14T05:52:54.607Z,99.90
2018-09-14T05:55:22.111Z,99.90
2018-09-14T05:57:49.628Z,99.90
2018-09-14T06:00:17.138Z,99.90
2018-09-14T06:02:44.645Z,99.90
2018-09-14T06:05:12.488Z,99.90
2018-09-14T06:07:39.993Z,99.90
2018-09-14T06:10:07.554Z,99.90
2018-09-14T06:12:35.214Z,99.90
2018-09-14T06:15:02.811Z,99.90
2018-09-14T06:17:30.306Z,99.90
2018-09-14T06:19:57.855Z,99.90
2018-09-14T06:22:25.681Z,99.90
2018-09-14T06:24:53.184Z,99.90
2018-09-14T06:27:20.812Z,99.90
2018-09-14T06:29:48.322Z,99.90
2018-09-14T06:32:15.828Z,99.90
2018-09-14T06:34:43.372Z,99.90
2018-09-14T06:37:10.872Z,99.90
2018-09-14T06:39:38.463Z,99.90
2018-09-14T06:42:05.965Z,99.90
2018-09-14T06:44:33.484Z,99.90
2018-09-14T06:47:00.996Z,99.90
2018-09-14T06:49:28.610Z,99.90
2018-09-14T06:51:56.177Z,99.90
2018-09-14T06:54:23.685Z,99.90
2018-09-14T06:56:51.215Z,99.90
2018-09-14T06:59:18.712Z,99.90
2018-09-14T07:01:46.205Z,99.90
2018-09-14T07:04:13.799Z,99.90
2018-09-14T07:06:41.367Z,99.90
2018-09-14T07:09:09.394Z,99.90
2018-09-14T07:11:36.973Z,99.90
2018-09-14T07:14:04.613Z,99.90
2018-09-14T07:16:32.124Z,99.90
2018-09-14T07:18:59.726Z,99.90
2018-09-14T07:21:27.490Z,99.90
2018-09-14T07:23:55.157Z,99.90
2018-09-14T07:26:22.785Z,99.90
2018-09-14T07:28:50.337Z,99.90
2018-09-14T07:31:18.153Z,99.90
2018-09-14T07:33:45.713Z,99.90
2018-09-14T07:36:13.984Z,99.90
2018-09-14T07:38:41.616Z,99.90
2018-09-14T07:41:09.214Z,99.90
2018-09-14T07:43:36.721Z,99.90
2018-09-14T07:46:04.255Z,99.90
2018-09-14T07:48:31.827Z,99.90
2018-09-14T07:50:59.336Z,99.90
2018-09-14T07:53:27.047Z,99.90
2018-09-14T07:55:54.626Z,99.90
2018-09-14T07:58:22.137Z,99.90
2018-09-14T08:00:49.707Z,99.90
2018-09-14T08:03:17.311Z,99.90
2018-09-14T08:05:44.819Z,99.90
2018-09-14T08:08:12.303Z,99.90
2018-09-14T08:10:39.824Z,99.90
2018-09-14T08:13:07.595Z,99.90
2018-09-14T08:15:35.135Z,99.90
2018-09-14T08:18:02.651Z,99.90
2018-09-14T08:20:30.377Z,99.90
2018-09-14T08:22:57.908Z,99.90
2018-09-14T08:25:25.441Z,99.90
2018-09-14T08:27:52.987Z,99.90
2018-09-14T08:30:20.569Z,99.90
2018-09-14T08:32:48.129Z,99.90
2018-09-14T08:35:15.830Z,99.90
2018-09-14T08:37:43.471Z,99.90
2018-09-14T08:40:11.214Z,99.90
2018-09-14T08:42:38.958Z,99.90
2018-09-14T08:45:06.524Z,99.90
2018-09-14T08:47:34.056Z,99.90
2018-09-14T08:50:01.615Z,99.90
2018-09-14T08:52:29.199Z,99.90
2018-09-14T08:54:56.747Z,99.90
2018-09-14T08:57:24.319Z,99.90
2018-09-14T08:59:51.871Z,99.90
2018-09-14T09:02:19.383Z,99.90
2018-09-14T09:04:46.905Z,99.90
2018-09-14T09:07:14.533Z,99.90
2018-09-14T09:09:41.981Z,99.90
2018-09-14T09:12:09.551Z,99.90
2018-09-14T09:14:37.057Z,99.90
2018-09-14T09:17:04.583Z,99.90
2018-09-14T09:19:32.223Z,99.90
2018-09-14T09:21:59.781Z,99.40
2018-09-14T09:24:27.299Z,99.10
2018-09-14T09:26:54.837Z,99.10
2018-09-14T09:29:22.456Z,98.40
2018-09-14T09:31:49.965Z,98.70
2018-09-14T09:34:17.474Z,98.40
2018-09-14T09:36:44.973Z,98.20
2018-09-14T09:39:13.063Z,98.00
2018-09-14T09:41:41.425Z,97.70
2018-09-14T09:44:09.192Z,97.60
2018-09-14T09:46:36.950Z,97.60
2018-09-14T09:49:04.507Z,97.70
2018-09-14T09:51:32.073Z,97.90
2018-09-14T09:53:59.584Z,97.30
2018-09-14T09:56:27.174Z,96.60
2018-09-14T09:58:54.754Z,96.40
2018-09-14T10:01:28.101Z,96.00
2018-09-14T10:04:07.048Z,95.50
2018-09-14T10:06:34.583Z,95.20
2018-09-14T10:09:02.177Z,94.80
2018-09-14T10:11:29.691Z,94.90
2018-09-14T10:13:57.232Z,95.30
2018-09-14T10:16:24.794Z,95.50
2018-09-14T10:18:52.287Z,95.00
2018-09-14T10:21:19.919Z,94.70
2018-09-14T10:23:47.413Z,94.30
2018-09-14T10:26:14.966Z,92.90
2018-09-14T10:28:42.573Z,93.10
2018-09-14T10:31:10.087Z,93.20
2018-09-14T10:33:37.605Z,92.70
2018-09-14T10:36:05.471Z,92.60
2018-09-14T10:38:33.191Z,92.70
2018-09-14T10:41:00.956Z,93.70
2018-09-14T10:43:28.509Z,92.00
2018-09-14T10:45:56.017Z,92.20
2018-09-14T10:48:23.563Z,92.00
2018-09-14T10:50:51.100Z,92.10
2018-09-14T10:53:18.668Z,92.20
2018-09-14T10:55:46.259Z,91.90
2018-09-14T10:58:13.853Z,92.50
2018-09-14T11:00:41.487Z,92.80
2018-09-14T11:03:08.985Z,93.00
2018-09-14T11:05:36.528Z,92.60
2018-09-14T11:08:04.080Z,92.00
2018-09-14T11:10:31.602Z,91.00
2018-09-14T11:12:59.162Z,91.20
2018-09-14T11:15:26.681Z,91.20
2018-09-14T11:17:54.215Z,91.60
2018-09-14T11:20:21.772Z,91.70
2018-09-14T11:22:49.266Z,92.00
2018-09-14T11:25:16.898Z,92.50
2018-09-14T11:27:44.404Z,92.60
2018-09-14T11:30:11.948Z,92.90
2018-09-14T11:32:39.629Z,93.00
2018-09-14T11:35:07.248Z,93.20
2018-09-14T11:37:34.830Z,93.20
2018-09-14T11:40:02.537Z,93.30
2018-09-14T11:42:30.617Z,93.30
2018-09-14T11:44:58.507Z,93.30
2018-09-14T11:47:26.180Z,93.20
2018-09-14T11:49:53.976Z,93.20
2018-09-14T11:52:21.530Z,92.90
2018-09-14T11:54:49.346Z,92.90
2018-09-14T11:57:16.880Z,92.90
2018-09-14T11:59:44.408Z,92.90
2018-09-14T12:02:12.008Z,92.70
2018-09-14T12:04:39.576Z,92.70
2018-09-14T12:07:07.166Z,92.60
2018-09-14T12:09:34.737Z,92.40
2018-09-14T12:12:02.286Z,92.20
2018-09-14T12:14:29.832Z,92.30
2018-09-14T12:16:57.362Z,91.50
2018-09-14T12:19:24.978Z,91.90
2018-09-14T12:21:52.483Z,91.90
2018-09-14T12:24:20.029Z,91.70
2018-09-14T12:26:47.572Z,91.50
2018-09-14T12:29:15.138Z,91.20
2018-09-14T12:31:42.676Z,91.40
2018-09-14T12:34:10.220Z,91.20
2018-09-14T12:36:37.744Z,91.10
2018-09-14T12:39:07.128Z,91.10
2018-09-14T12:41:34.636Z,90.80
2018-09-14T12:44:02.160Z,90.20
2018-09-14T12:46:29.660Z,90.20
2018-09-14T12:48:57.198Z,90.40
2018-09-14T12:51:24.706Z,90.40
2018-09-14T12:53:52.254Z,90.20
2018-09-14T12:56:19.833Z,90.20
2018-09-14T12:58:47.324Z,89.30
2018-09-14T13:01:14.810Z,90.00
2018-09-14T13:03:42.367Z,89.70
2018-09-14T13:06:09.893Z,88.60
2018-09-14T13:08:37.425Z,88.20
2018-09-14T13:11:04.988Z,87.60
2018-09-14T13:13:32.522Z,87.00
2018-09-14T13:16:00.230Z,87.20
2018-09-14T13:18:27.828Z,86.80
2018-09-14T13:20:55.383Z,86.70
2018-09-14T13:23:22.938Z,88.50
2018-09-14T13:25:50.556Z,89.20
2018-09-14T13:28:18.062Z,90.50
2018-09-14T13:30:45.594Z,90.90
2018-09-14T13:33:13.153Z,91.20
2018-09-14T13:35:40.661Z,91.50
2018-09-14T13:38:08.165Z,91.80
2018-09-14T13:40:35.749Z,91.80
2018-09-14T13:43:03.296Z,92.00
2018-09-14T13:45:30.836Z,91.70
2018-09-14T13:47:58.435Z,91.50
2018-09-14T13:50:25.962Z,90.90
2018-09-14T13:52:53.617Z,90.70
2018-09-14T13:55:21.148Z,90.20
2018-09-14T13:57:48.700Z,90.10
2018-09-14T14:00:16.280Z,89.80
2018-09-14T14:02:43.871Z,87.20
2018-09-14T14:05:11.393Z,86.20
2018-09-14T14:07:38.888Z,86.10
2018-09-14T14:10:06.462Z,85.80
2018-09-14T14:12:34.059Z,82.90
2018-09-14T14:15:01.590Z,81.50
2018-09-14T14:17:29.256Z,81.90
2018-09-14T14:19:56.698Z,80.50
2018-09-14T14:22:24.210Z,79.60
2018-09-14T14:24:51.719Z,80.10
2018-09-14T14:27:19.288Z,79.10
2018-09-14T14:29:46.839Z,78.50
2018-09-14T14:32:14.372Z,77.00
2018-09-14T14:34:41.899Z,77.00
2018-09-14T14:37:09.478Z,74.80
2018-09-14T14:39:37.003Z,74.50
2018-09-14T14:42:04.579Z,73.50
2018-09-14T14:44:32.104Z,74.90
2018-09-14T14:46:59.699Z,75.60
2018-09-14T14:49:27.426Z,76.40
2018-09-14T14:51:55.005Z,77.10
2018-09-14T14:54:22.527Z,77.60
2018-09-14T14:56:50.065Z,77.20
2018-09-14T14:59:17.582Z,78.80
2018-09-14T15:01:45.092Z,79.10
2018-09-14T15:04:12.642Z,79.00
2018-09-14T15:06:40.183Z,79.50
2018-09-14T15:09:08.997Z,80.10
2018-09-14T15:11:36.530Z,80.40
2018-09-14T15:14:04.096Z,80.60
2018-09-14T15:16:31.630Z,80.60
2018-09-14T15:18:59.163Z,81.00
2018-09-14T15:21:26.755Z,81.20
2018-09-14T15:23:54.723Z,81.20
2018-09-14T15:26:22.275Z,81.40
2018-09-14T15:28:49.855Z,81.50
2018-09-14T15:31:17.385Z,81.90
2018-09-14T15:33:44.946Z,82.60
2018-09-14T15:36:12.458Z,83.20
2018-09-14T15:38:39.993Z,83.60
2018-09-14T15:41:07.619Z,84.10
2018-09-14T15:43:35.214Z,84.70
2018-09-14T15:46:02.776Z,85.10
2018-09-14T15:48:30.339Z,85.30
2018-09-14T15:50:57.880Z,85.80
2018-09-14T15:53:25.469Z,85.80
2018-09-14T15:55:53.093Z,86.20
2018-09-14T15:58:20.655Z,86.30
2018-09-14T16:00:48.741Z,86.50
2018-09-14T16:03:16.521Z,86.50
2018-09-14T16:05:44.058Z,86.70
2018-09-14T16:08:11.583Z,86.70
2018-09-14T16:10:39.163Z,87.10
2018-09-14T16:13:06.711Z,87.20
2018-09-14T16:15:34.290Z,87.40
2018-09-14T16:18:01.821Z,87.40
2018-09-14T16:20:29.366Z,87.90
2018-09-14T16:22:56.904Z,88.10
2018-09-14T16:25:24.613Z,88.20
2018-09-14T16:27:52.182Z,88.40
2018-09-14T16:30:19.722Z,88.40
2018-09-14T16:32:47.413Z,88.70
2018-09-14T16:35:15.290Z,88.90
2018-09-14T16:37:42.812Z,89.20
2018-09-14T16:40:10.398Z,89.50
2018-09-14T16:42:37.945Z,89.60
2018-09-14T16:45:05.544Z,89.80
2018-09-14T16:47:33.089Z,90.00
2018-09-14T16:50:00.616Z,90.10
2018-09-14T16:52:28.152Z,90.20
2018-09-14T16:54:55.680Z,90.20
2018-09-14T16:57:23.240Z,90.30
2018-09-14T16:59:50.827Z,90.50
2018-09-14T17:02:18.367Z,90.50
2018-09-14T17:04:46.008Z,90.50
2018-09-14T17:07:13.576Z,90.00
2018-09-14T17:09:41.106Z,88.80
2018-09-14T17:12:08.652Z,86.00
2018-09-14T17:14:36.242Z,85.00
2018-09-14T17:17:03.802Z,85.60
2018-09-14T17:19:31.356Z,86.30
2018-09-14T17:21:58.893Z,86.80
2018-09-14T17:24:26.458Z,88.10
2018-09-14T17:26:54.010Z,87.90
2018-09-14T17:29:21.541Z,88.70
2018-09-14T17:31:49.071Z,89.30
2018-09-14T17:34:16.592Z,89.80
2018-09-14T17:36:44.121Z,90.30
2018-09-14T17:39:11.717Z,90.40
2018-09-14T17:41:39.272Z,90.60
2018-09-14T17:44:06.859Z,90.70
2018-09-14T17:46:34.386Z,90.90
2018-09-14T17:49:01.925Z,91.10
2018-09-14T17:51:29.486Z,91.30
2018-09-14T17:53:57.013Z,91.30
2018-09-14T17:56:24.540Z,91.50
2018-09-14T17:58:52.164Z,91.70
2018-09-14T18:01:26.576Z,91.80
2018-09-14T18:03:54.139Z,92.00
2018-09-14T18:06:21.760Z,92.20
2018-09-14T18:08:49.894Z,92.40
2018-09-14T18:11:17.415Z,92.70
2018-09-14T18:13:45.007Z,93.00
2018-09-14T18:16:12.539Z,93.10
2018-09-14T18:18:40.134Z,93.30
2018-09-14T18:21:07.794Z,93.50
2018-09-14T18:23:35.390Z,93.70
2018-09-14T18:26:02.902Z,93.80
2018-09-14T18:28:30.515Z,94.10
2018-09-14T18:30:58.072Z,94.20
2018-09-14T18:33:25.646Z,94.50
2018-09-14T18:35:53.239Z,94.60
2018-09-14T18:38:20.707Z,94.90
2018-09-14T18:40:48.202Z,95.00
2018-09-14T18:43:15.729Z,95.20
2018-09-14T18:45:43.352Z,95.40
2018-09-14T18:48:10.863Z,95.50
2018-09-14T18:50:38.401Z,95.80
2018-09-14T18:53:06.113Z,95.90
2018-09-14T18:55:33.609Z,96.30
2018-09-14T18:58:01.135Z,96.10
2018-09-14T19:00:28.693Z,96.40
2018-09-14T19:02:56.205Z,96.50
2018-09-14T19:05:23.923Z,96.50
2018-09-14T19:07:51.628Z,96.70
2018-09-14T19:10:19.219Z,96.60
2018-09-14T19:12:46.791Z,96.70
2018-09-14T19:15:14.319Z,96.80
2018-09-14T19:17:41.845Z,96.80
2018-09-14T19:20:09.360Z,96.90
2018-09-14T19:22:36.985Z,97.00
2018-09-14T19:25:04.612Z,97.20
2018-09-14T19:27:32.117Z,97.60
2018-09-14T19:29:59.650Z,97.60
2018-09-14T19:32:27.191Z,97.70
2018-09-14T19:34:54.702Z,97.90
2018-09-14T19:37:22.215Z,98.00
2018-09-14T19:39:49.735Z,98.30
2018-09-14T19:42:17.241Z,98.30
2018-09-14T19:44:44.785Z,98.50
2018-09-14T19:47:12.342Z,98.60
2018-09-14T19:49:39.879Z,98.90
2018-09-14T19:52:07.451Z,99.00
2018-09-14T19:54:34.996Z,99.30
2018-09-14T19:57:02.595Z,99.50
2018-09-14T19:59:30.134Z,99.60
2018-09-14T20:01:57.693Z,99.80
2018-09-14T20:04:25.260Z,99.90
2018-09-14T20:06:52.777Z,99.90
2018-09-14T20:09:20.286Z,99.90
2018-09-14T20:11:47.971Z,99.90
2018-09-14T20:14:15.457Z,99.90
2018-09-14T20:16:43.049Z,99.90
2018-09-14T20:19:10.597Z,99.90
2018-09-14T20:21:38.124Z,99.90
2018-09-14T20:24:05.644Z,99.90
2018-09-14T20:26:33.201Z,99.90
2018-09-14T20:29:00.705Z,99.90
2018-09-14T20:31:28.246Z,99.90
2018-09-14T20:33:55.820Z,99.90
2018-09-14T20:36:23.501Z,99.90
2018-09-14T20:38:51.041Z,99.90
2018-09-14T20:41:18.729Z,99.90
2018-09-14T20:43:46.243Z,99.90
2018-09-14T20:46:14.010Z,99.90
2018-09-14T20:48:41.559Z,99.90
2018-09-14T20:51:09.072Z,99.90
2018-09-14T20:53:36.572Z,99.90
2018-09-14T20:56:04.169Z,99.90
2018-09-14T20:58:31.754Z,99.90
2018-09-14T21:00:59.287Z,99.90
2018-09-14T21:03:26.833Z,99.90
2018-09-14T21:05:54.516Z,99.90
2018-09-14T21:08:22.060Z,99.90
2018-09-14T21:10:49.640Z,99.90
2018-09-14T21:13:17.173Z,99.90
2018-09-14T21:15:44.790Z,99.90
2018-09-14T21:18:12.354Z,99.90
2018-09-14T21:20:39.897Z,99.90
2018-09-14T21:23:07.425Z,99.90
2018-09-14T21:25:35.925Z,99.90
2018-09-14T21:28:03.685Z,99.90
2018-09-14T21:30:31.193Z,99.90
2018-09-14T21:32:58.724Z,99.90
2018-09-14T21:35:26.235Z,99.90
2018-09-14T21:37:53.749Z,99.90
2018-09-14T21:40:21.332Z,99.90
2018-09-14T21:42:48.806Z,99.90
2018-09-14T21:45:16.329Z,99.90
2018-09-14T21:47:43.941Z,99.90
2018-09-14T21:50:11.465Z,99.90
2018-09-14T21:52:38.987Z,99.90
2018-09-14T21:55:06.585Z,99.90
2018-09-14T21:57:34.151Z,99.90
2018-09-14T22:00:07.238Z,99.90
2018-09-14T22:02:34.735Z,99.90
2018-09-14T22:05:02.255Z,99.90
2018-09-14T22:07:29.803Z,99.90
2018-09-14T22:09:57.335Z,99.90
2018-09-14T22:12:24.852Z,99.90
2018-09-14T22:14:52.404Z,99.90
2018-09-14T22:17:19.909Z,99.90
2018-09-14T22:19:47.402Z,99.90
2018-09-14T22:22:14.983Z,99.90
2018-09-14T22:24:42.526Z,99.90
2018-09-14T22:27:10.033Z,99.90
2018-09-14T22:29:37.584Z,99.90
2018-09-14T22:32:05.190Z,99.90
2018-09-14T22:34:32.676Z,99.90
2018-09-14T22:37:00.216Z,99.90
2018-09-14T22:39:27.736Z,99.90
2018-09-14T22:41:55.260Z,99.90
2018-09-14T22:44:22.799Z,99.90
2018-09-14T22:46:50.326Z,99.90
2018-09-14T22:49:17.866Z,99.90
2018-09-14T22:51:45.408Z,99.90
2018-09-14T22:54:12.952Z,99.90
2018-09-14T22:56:40.543Z,99.90
2018-09-14T22:59:08.185Z,99.90
2018-09-14T23:01:36.566Z,99.90
2018-09-14T23:04:04.110Z,99.90
2018-09-14T23:06:31.614Z,99.90
2018-09-14T23:08:59.123Z,99.90
2018-09-14T23:11:26.671Z,99.90
2018-09-14T23:13:54.163Z,99.90
2018-09-14T23:16:21.680Z,99.90
2018-09-14T23:18:49.340Z,99.90
2018-09-14T23:21:16.840Z,99.90
2018-09-14T23:23:44.330Z,99.90
2018-09-14T23:26:13.818Z,99.90
2018-09-14T23:28:41.403Z,99.90
2018-09-14T23:31:08.889Z,99.90
2018-09-14T23:33:36.420Z,99.90
2018-09-14T23:36:03.957Z,99.90
2018-09-14T23:38:31.445Z,99.90
2018-09-14T23:40:58.979Z,99.90
2018-09-14T23:43:26.494Z,99.90
2018-09-14T23:45:54.002Z,99.90
2018-09-14T23:48:21.500Z,99.90
2018-09-14T23:50:49.011Z,99.90
2018-09-14T23:53:16.492Z,99.90
2018-09-14T23:55:44.003Z,99.90
2018-09-14T23:58:11.509Z,99.90
